createdAt,value
2024-05-09T00:00:35.755Z,13.25
2024-05-09T00:03:10.949Z,13.22
2024-05-09T00:05:40.447Z,13.17
2024-05-09T00:08:08.189Z,13.12
2024-05-09T00:10:37.697Z,13.12
2024-05-09T00:13:10.023Z,13.08
2024-05-09T00:15:37.336Z,13.03
2024-05-09T00:18:05.368Z,13.01
2024-05-09T00:20:37.952Z,12.98
2024-05-09T00:23:08.641Z,12.94
2024-05-09T00:25:35.725Z,12.92
2024-05-09T00:28:02.538Z,12.90
2024-05-09T00:30:34.354Z,12.88
2024-05-09T00:33:07.105Z,12.83
2024-05-09T00:35:35.338Z,12.82
2024-05-09T00:38:02.382Z,12.81
2024-05-09T00:40:39.138Z,12.76
2024-05-09T00:43:08.309Z,12.71
2024-05-09T00:45:35.578Z,12.69
2024-05-09T00:48:04.848Z,12.66
2024-05-09T00:50:37.108Z,12.65
2024-05-09T00:53:06.805Z,12.58
2024-05-09T00:55:34.668Z,12.58
2024-05-09T00:58:01.716Z,12.56
2024-05-09T01:00:35.930Z,12.52
2024-05-09T01:03:06.574Z,12.50
2024-05-09T01:05:34.711Z,12.45
2024-05-09T01:08:01.833Z,12.42
2024-05-09T01:10:34.106Z,12.39
2024-05-09T01:13:03.221Z,12.35
2024-05-09T01:15:29.875Z,12.34
2024-05-09T01:17:57.092Z,12.32
2024-05-09T01:20:35.914Z,12.28
2024-05-09T01:23:07.348Z,12.25
2024-05-09T01:25:34.155Z,12.21
2024-05-09T01:28:00.901Z,12.17
2024-05-09T01:30:34.101Z,12.15
2024-05-09T01:33:03.583Z,12.10
2024-05-09T01:35:30.490Z,12.08
2024-05-09T01:37:57.128Z,12.04
2024-05-09T01:40:33.325Z,12.01
2024-05-09T01:43:04.518Z,11.99
2024-05-09T01:45:31.107Z,11.97
2024-05-09T01:47:57.823Z,11.93
2024-05-09T01:50:35.842Z,11.93
2024-05-09T01:53:05.834Z,11.90
2024-05-09T01:55:32.599Z,11.89
2024-05-09T01:57:59.182Z,11.88
2024-05-09T02:00:36.858Z,11.87
2024-05-09T02:03:13.943Z,11.84
2024-05-09T02:05:43.339Z,11.80
2024-05-09T02:08:17.750Z,11.76
2024-05-09T02:10:45.376Z,11.76
2024-05-09T02:13:13.122Z,11.76
2024-05-09T02:15:39.742Z,11.75
2024-05-09T02:18:07.360Z,11.72
2024-05-09T02:20:36.760Z,11.67
2024-05-09T02:23:06.181Z,11.67
2024-05-09T02:25:33.276Z,11.65
2024-05-09T02:27:59.903Z,11.62
2024-05-09T02:30:36.478Z,11.61
2024-05-09T02:33:07.506Z,11.58
2024-05-09T02:35:34.633Z,11.55
2024-05-09T02:38:01.638Z,11.53
2024-05-09T02:40:36.334Z,11.51
2024-05-09T02:43:05.755Z,11.49
2024-05-09T02:45:32.553Z,11.40
2024-05-09T02:47:59.434Z,11.44
2024-05-09T02:50:33.962Z,11.43
2024-05-09T02:53:04.949Z,11.38
2024-05-09T02:55:31.661Z,11.37
2024-05-09T02:57:58.208Z,11.34
2024-05-09T03:00:34.202Z,11.33
2024-05-09T03:03:06.380Z,11.30
2024-05-09T03:05:33.444Z,11.29
2024-05-09T03:08:00.227Z,11.26
2024-05-09T03:10:29.106Z,11.24
2024-05-09T03:13:05.639Z,11.20
2024-05-09T03:15:32.990Z,11.19
2024-05-09T03:18:00.747Z,11.16
2024-05-09T03:20:33.249Z,11.14
2024-05-09T03:23:02.021Z,11.12
2024-05-09T03:25:28.673Z,11.10
2024-05-09T03:27:55.223Z,11.08
2024-05-09T03:30:31.074Z,11.04
2024-05-09T03:33:18.021Z,11.03
2024-05-09T03:35:46.298Z,10.99
2024-05-09T03:38:13.111Z,10.95
2024-05-09T03:40:50.452Z,10.94
2024-05-09T03:43:17.781Z,10.92
2024-05-09T03:45:44.765Z,10.89
2024-05-09T03:48:11.699Z,10.89
2024-05-09T03:50:38.731Z,10.87
2024-05-09T03:53:05.701Z,10.84
2024-05-09T03:55:32.332Z,10.83
2024-05-09T03:57:59.173Z,10.81
2024-05-09T04:00:34.170Z,10.79
2024-05-09T04:03:07.156Z,10.78
2024-05-09T04:05:36.621Z,10.78
2024-05-09T04:08:03.375Z,10.76
2024-05-09T04:10:33.615Z,10.75
2024-05-09T04:13:01.798Z,10.73
2024-05-09T04:15:28.475Z,10.73
2024-05-09T04:17:55.333Z,10.72
2024-05-09T04:20:32.972Z,10.72
2024-05-09T04:23:06.027Z,10.71
2024-05-09T04:25:32.757Z,10.71
2024-05-09T04:27:59.396Z,10.68
2024-05-09T04:30:34.798Z,10.68
2024-05-09T04:33:06.423Z,10.70
2024-05-09T04:35:33.869Z,10.69
2024-05-09T04:38:00.616Z,10.72
2024-05-09T04:40:33.181Z,10.73
2024-05-09T04:43:02.885Z,10.74
2024-05-09T04:45:29.487Z,10.75
2024-05-09T04:47:56.292Z,10.76
2024-05-09T04:50:30.306Z,10.77
2024-05-09T04:53:03.524Z,10.80
2024-05-09T04:55:30.328Z,10.82
2024-05-09T04:57:56.912Z,10.84
2024-05-09T05:00:32.372Z,10.87
2024-05-09T05:03:08.141Z,10.89
2024-05-09T05:05:42.017Z,10.90
2024-05-09T05:08:12.295Z,10.93
2024-05-09T05:10:38.967Z,10.98
2024-05-09T05:13:22.283Z,11.01
2024-05-09T05:15:56.424Z,11.03
2024-05-09T05:18:24.426Z,11.00
2024-05-09T05:23:22.138Z,11.03
2024-05-09T05:25:49.580Z,11.06
2024-05-09T05:28:16.899Z,11.12
2024-05-09T05:30:43.552Z,11.17
2024-05-09T05:33:11.270Z,11.21
2024-05-09T05:35:38.264Z,11.26
2024-05-09T05:38:06.570Z,11.27
2024-05-09T05:40:37.002Z,11.30
2024-05-09T05:43:06.012Z,11.32
2024-05-09T05:45:32.545Z,11.38
2024-05-09T05:47:59.958Z,11.44
2024-05-09T05:50:32.681Z,11.50
2024-05-09T05:53:03.212Z,11.55
2024-05-09T05:55:29.978Z,11.63
2024-05-09T05:57:56.522Z,11.69
2024-05-09T06:00:29.840Z,11.78
2024-05-09T06:03:04.435Z,11.88
2024-05-09T06:05:31.248Z,11.94
2024-05-09T06:07:57.930Z,12.03
2024-05-09T06:10:30.026Z,12.15
2024-05-09T06:13:03.866Z,12.24
2024-05-09T06:15:30.400Z,12.29
2024-05-09T06:17:57.016Z,12.39
2024-05-09T06:20:31.066Z,12.47
2024-05-09T06:23:02.937Z,12.55
2024-05-09T06:25:29.589Z,12.63
2024-05-09T06:27:56.133Z,12.70
2024-05-09T06:30:30.058Z,12.73
2024-05-09T06:33:05.371Z,12.82
2024-05-09T06:35:32.649Z,12.87
2024-05-09T06:37:59.440Z,12.97
2024-05-09T06:40:34.440Z,13.02
2024-05-09T06:43:04.866Z,13.10
2024-05-09T06:45:31.429Z,13.16
2024-05-09T06:47:58.150Z,13.23
2024-05-09T06:50:28.315Z,13.27
2024-05-09T06:52:58.403Z,13.37
2024-05-09T06:55:25.002Z,13.46
2024-05-09T06:57:51.551Z,13.52
2024-05-09T07:00:26.875Z,13.58
2024-05-09T07:02:59.052Z,13.64
2024-05-09T07:05:26.810Z,13.71
2024-05-09T07:07:53.544Z,13.77
2024-05-09T07:10:28.471Z,13.84
2024-05-09T07:12:59.367Z,13.93
2024-05-09T07:15:25.935Z,13.99
2024-05-09T07:17:52.790Z,14.07
2024-05-09T07:20:27.625Z,14.15
2024-05-09T07:23:00.649Z,14.20
2024-05-09T07:25:27.247Z,14.28
2024-05-09T07:27:53.791Z,14.33
2024-05-09T07:30:27.622Z,14.41
2024-05-09T07:32:59.909Z,14.48
2024-05-09T07:35:26.908Z,14.56
2024-05-09T07:37:53.751Z,14.64
2024-05-09T07:42:49.829Z,14.80
2024-05-09T07:45:39.106Z,14.87
2024-05-09T07:52:22.964Z,15.10
2024-05-09T07:53:38.536Z,15.29
2024-05-09T07:56:07.044Z,15.55
2024-05-09T07:58:33.926Z,15.77
2024-05-09T08:01:02.472Z,16.04
2024-05-09T08:03:29.232Z,16.30
2024-05-09T08:05:58.381Z,16.39
2024-05-09T08:08:24.959Z,16.61
2024-05-09T08:10:51.628Z,16.81
2024-05-09T08:13:18.343Z,17.11
2024-05-09T08:15:45.068Z,17.63
2024-05-09T08:18:11.859Z,18.00
2024-05-09T08:20:39.339Z,18.58
2024-05-09T08:23:06.140Z,18.96
2024-05-09T08:25:32.847Z,19.22
2024-05-09T08:27:59.491Z,19.64
2024-05-09T08:30:32.871Z,20.13
2024-05-09T08:33:03.750Z,20.59
2024-05-09T08:35:30.637Z,20.62
2024-05-09T08:37:57.427Z,20.50
2024-05-09T08:40:30.956Z,20.68
2024-05-09T08:43:02.805Z,20.27
2024-05-09T08:45:29.623Z,20.70
2024-05-09T08:47:56.750Z,21.13
2024-05-09T08:50:32.162Z,21.59
2024-05-09T08:53:05.076Z,22.00
2024-05-09T08:55:31.804Z,22.45
2024-05-09T08:57:59.256Z,22.52
2024-05-09T09:00:35.623Z,22.79
2024-05-09T09:03:05.858Z,23.10
2024-05-09T09:05:33.705Z,23.30
2024-05-09T09:08:00.609Z,23.33
2024-05-09T09:10:32.112Z,23.30
2024-05-09T09:13:09.635Z,23.26
2024-05-09T09:15:46.928Z,23.01
2024-05-09T09:18:13.962Z,22.57
2024-05-09T09:20:40.657Z,22.65
2024-05-09T09:23:07.949Z,22.29
2024-05-09T09:25:34.489Z,21.93
2024-05-09T09:28:01.266Z,21.61
2024-05-09T09:30:35.368Z,21.36
2024-05-09T09:33:05.473Z,21.00
2024-05-09T09:35:32.662Z,20.80
2024-05-09T09:38:02.281Z,21.08
2024-05-09T09:40:39.197Z,21.16
2024-05-09T09:43:14.414Z,21.48
2024-05-09T09:45:41.992Z,21.83
2024-05-09T09:48:10.164Z,22.08
2024-05-09T09:50:37.395Z,22.24
2024-05-09T09:53:04.944Z,21.99
2024-05-09T09:55:32.613Z,21.74
2024-05-09T09:58:01.884Z,21.47
2024-05-09T10:00:33.046Z,21.37
2024-05-09T10:03:01.427Z,21.41
2024-05-09T10:05:29.030Z,21.33
2024-05-09T10:07:56.496Z,21.11
2024-05-09T10:10:31.515Z,21.18
2024-05-09T10:13:00.094Z,21.60
2024-05-09T10:15:26.779Z,21.76
2024-05-09T10:17:53.532Z,21.70
2024-05-09T10:20:24.712Z,21.96
2024-05-09T10:22:54.393Z,22.10
2024-05-09T10:25:21.214Z,22.26
2024-05-09T10:27:55.175Z,22.23
2024-05-09T10:30:29.656Z,22.09
2024-05-09T10:33:02.297Z,22.01
2024-05-09T10:35:31.398Z,22.01
2024-05-09T10:38:05.645Z,21.85
2024-05-09T10:40:32.326Z,21.91
2024-05-09T10:43:02.550Z,22.16
2024-05-09T10:45:31.957Z,22.29
2024-05-09T10:47:58.793Z,22.20
2024-05-09T10:50:29.151Z,22.15
2024-05-09T10:53:00.401Z,22.25
2024-05-09T10:55:27.456Z,22.05
2024-05-09T10:57:54.134Z,21.87
2024-05-09T11:00:27.583Z,21.59
2024-05-09T11:03:00.156Z,21.62
2024-05-09T11:05:26.996Z,21.63
2024-05-09T11:07:53.829Z,21.52
2024-05-09T11:10:27.412Z,21.40
2024-05-09T11:12:58.519Z,21.45
2024-05-09T11:15:25.922Z,21.48
2024-05-09T11:17:52.626Z,21.53
2024-05-09T11:20:26.792Z,21.50
2024-05-09T11:22:57.675Z,21.50
2024-05-09T11:25:24.281Z,21.54
2024-05-09T11:27:50.987Z,21.49
2024-05-09T11:30:26.692Z,21.35
2024-05-09T11:32:58.812Z,21.37
2024-05-09T11:35:26.419Z,21.52
2024-05-09T11:37:53.055Z,21.45
2024-05-09T11:40:25.371Z,21.47
2024-05-09T11:42:55.270Z,21.51
2024-05-09T11:45:22.047Z,21.51
2024-05-09T11:47:48.918Z,21.48
2024-05-09T11:50:22.616Z,21.44
2024-05-09T11:52:56.016Z,21.39
2024-05-09T11:55:26.764Z,21.33
2024-05-09T11:57:54.588Z,21.28
2024-05-09T12:00:29.460Z,21.22
2024-05-09T12:03:04.999Z,21.21
2024-05-09T12:05:32.295Z,21.23
2024-05-09T12:07:59.059Z,21.22
2024-05-09T12:10:32.723Z,21.10
2024-05-09T12:13:01.914Z,21.19
2024-05-09T12:15:28.825Z,21.24
2024-05-09T12:17:58.192Z,21.21
2024-05-09T12:20:34.769Z,21.22
2024-05-09T12:23:04.454Z,21.25
2024-05-09T12:25:31.091Z,21.36
2024-05-09T12:27:57.693Z,21.40
2024-05-09T12:30:33.258Z,21.41
2024-05-09T12:33:04.895Z,21.39
2024-05-09T12:35:31.709Z,21.37
2024-05-09T12:37:58.325Z,21.34
2024-05-09T12:40:34.214Z,21.26
2024-05-09T12:43:04.501Z,21.23
2024-05-09T12:45:31.545Z,21.14
2024-05-09T12:47:58.362Z,21.11
2024-05-09T12:50:31.734Z,21.15
2024-05-09T12:53:00.364Z,21.08
2024-05-09T12:55:28.121Z,21.05
2024-05-09T12:57:55.073Z,21.01
2024-05-09T13:00:28.152Z,21.11
2024-05-09T13:03:00.346Z,21.17
2024-05-09T13:05:27.384Z,21.24
2024-05-09T13:07:54.133Z,21.31
2024-05-09T13:10:29.005Z,21.30
2024-05-09T13:12:59.445Z,21.37
2024-05-09T13:15:26.296Z,21.39
2024-05-09T13:17:52.982Z,21.39
2024-05-09T13:20:28.895Z,21.35
2024-05-09T13:23:01.434Z,21.32
2024-05-09T13:25:28.308Z,21.22
2024-05-09T13:27:55.093Z,21.21
2024-05-09T13:30:29.349Z,21.10
2024-05-09T13:33:04.841Z,21.02
2024-05-09T13:35:32.159Z,20.98
2024-05-09T13:37:58.777Z,20.98
2024-05-09T13:40:32.322Z,20.93
2024-05-09T13:43:01.973Z,20.85
2024-05-09T13:45:28.819Z,20.87
2024-05-09T13:47:55.622Z,20.87
2024-05-09T13:50:31.011Z,20.92
2024-05-09T13:53:01.799Z,20.93
2024-05-09T13:55:28.512Z,20.94
2024-05-09T13:57:55.507Z,21.01
2024-05-09T14:00:37.624Z,21.13
2024-05-09T14:03:08.930Z,21.14
2024-05-09T14:05:35.841Z,21.08
2024-05-09T14:08:02.525Z,21.08
2024-05-09T14:10:31.475Z,21.13
2024-05-09T14:12:59.022Z,21.13
2024-05-09T14:15:25.672Z,21.05
2024-05-09T14:17:52.361Z,21.03
2024-05-09T14:20:28.503Z,21.04
2024-05-09T14:22:58.252Z,21.10
2024-05-09T14:25:26.329Z,21.18
2024-05-09T14:27:53.248Z,21.20
2024-05-09T14:30:29.576Z,21.29
2024-05-09T14:33:01.183Z,21.39
2024-05-09T14:35:27.904Z,21.56
2024-05-09T14:37:57.287Z,21.87
2024-05-09T14:42:53.369Z,22.66
2024-05-09T14:45:19.969Z,22.89
2024-05-09T14:47:46.726Z,22.93
2024-05-09T14:50:19.623Z,23.14
2024-05-09T14:52:54.065Z,23.31
2024-05-09T14:55:20.627Z,23.38
2024-05-09T14:57:47.327Z,23.50
2024-05-09T15:00:21.313Z,23.57
2024-05-09T15:02:52.968Z,23.54
2024-05-09T15:05:19.763Z,23.58
2024-05-09T15:07:46.524Z,23.58
2024-05-09T15:10:20.408Z,23.58
2024-05-09T15:12:52.248Z,23.52
2024-05-09T15:15:22.317Z,23.53
2024-05-09T15:17:49.297Z,23.49
2024-05-09T15:20:20.484Z,23.44
2024-05-09T15:22:50.866Z,23.39
2024-05-09T15:25:17.504Z,23.47
2024-05-09T15:27:44.284Z,23.49
2024-05-09T15:30:23.868Z,23.51
2024-05-09T15:32:54.090Z,23.46
2024-05-09T15:35:20.813Z,23.46
2024-05-09T15:37:48.401Z,23.53
2024-05-09T15:40:21.577Z,23.56
2024-05-09T15:42:53.320Z,23.62
2024-05-09T15:45:19.972Z,23.57
2024-05-09T15:47:46.771Z,23.54
2024-05-09T15:50:20.432Z,23.54
2024-05-09T15:52:55.310Z,23.37
2024-05-09T15:55:21.871Z,23.30
2024-05-09T15:57:48.488Z,23.26
2024-05-09T16:00:24.367Z,23.34
2024-05-09T16:03:08.805Z,23.36
2024-05-09T16:05:36.310Z,23.36
2024-05-09T16:08:03.175Z,23.37
2024-05-09T16:10:32.955Z,23.34
2024-05-09T16:13:01.819Z,23.29
2024-05-09T16:15:28.788Z,23.38
2024-05-09T16:17:55.733Z,23.54
2024-05-09T16:20:33.941Z,23.54
2024-05-09T16:23:07.430Z,23.50
2024-05-09T16:25:34.143Z,23.53
2024-05-09T16:28:01.478Z,23.58
2024-05-09T16:30:34.376Z,23.59
2024-05-09T16:33:03.873Z,23.62
2024-05-09T16:35:31.212Z,23.59
2024-05-09T16:37:57.788Z,23.48
2024-05-09T16:40:34.321Z,23.39
2024-05-09T16:43:05.871Z,23.25
2024-05-09T16:45:33.192Z,23.01
2024-05-09T16:48:00.414Z,22.92
2024-05-09T16:50:32.496Z,23.04
2024-05-09T16:53:01.049Z,23.00
2024-05-09T16:55:27.905Z,23.02
2024-05-09T16:57:55.602Z,23.03
2024-05-09T17:00:31.706Z,23.01
2024-05-09T17:03:06.979Z,22.97
2024-05-09T17:05:34.483Z,22.80
2024-05-09T17:08:01.477Z,22.40
2024-05-09T17:10:32.861Z,22.21
2024-05-09T17:13:01.873Z,22.09
2024-05-09T17:15:28.637Z,21.83
2024-05-09T17:17:55.331Z,21.61
2024-05-09T17:20:29.548Z,21.47
2024-05-09T17:23:01.580Z,21.36
2024-05-09T17:25:28.351Z,21.24
2024-05-09T17:27:55.225Z,21.12
2024-05-09T17:30:29.031Z,20.98
2024-05-09T17:33:01.659Z,20.82
2024-05-09T17:35:28.489Z,20.74
2024-05-09T17:37:55.060Z,20.71
2024-05-09T17:40:30.715Z,20.65
2024-05-09T17:43:01.191Z,20.57
2024-05-09T17:45:27.916Z,20.53
2024-05-09T17:47:54.849Z,20.48
2024-05-09T17:50:27.640Z,20.42
2024-05-09T17:53:00.709Z,20.38
2024-05-09T17:55:27.517Z,20.36
2024-05-09T17:57:54.356Z,20.33
2024-05-09T18:00:29.257Z,20.28
2024-05-09T18:03:04.051Z,20.25
2024-05-09T18:05:31.159Z,20.28
2024-05-09T18:07:57.942Z,20.24
2024-05-09T18:10:32.551Z,20.12
2024-05-09T18:13:03.344Z,20.07
2024-05-09T18:15:29.930Z,20.03
2024-05-09T18:17:56.698Z,20.00
2024-05-09T18:20:33.093Z,19.95
2024-05-09T18:23:07.973Z,19.90
2024-05-09T18:25:35.234Z,19.88
2024-05-09T18:28:05.277Z,19.90
2024-05-09T18:30:35.287Z,19.89
2024-05-09T18:33:05.358Z,19.82
2024-05-09T18:35:33.326Z,19.75
2024-05-09T18:38:00.058Z,19.67
2024-05-09T18:40:33.363Z,19.61
2024-05-09T18:43:03.680Z,19.54
2024-05-09T18:45:30.615Z,19.55
2024-05-09T18:47:57.547Z,19.51
2024-05-09T18:50:32.317Z,19.47
2024-05-09T18:53:06.377Z,19.41
2024-05-09T18:55:33.225Z,19.40
2024-05-09T18:58:00.102Z,19.36
2024-05-09T19:00:33.878Z,19.30
2024-05-09T19:03:05.607Z,19.24
2024-05-09T19:05:33.222Z,19.22
2024-05-09T19:08:00.013Z,19.21
2024-05-09T19:10:33.650Z,19.19
2024-05-09T19:13:04.399Z,19.17
2024-05-09T19:15:34.281Z,19.11
2024-05-09T19:18:01.149Z,19.03
2024-05-09T19:20:33.403Z,18.95
2024-05-09T19:23:01.639Z,18.84
2024-05-09T19:25:28.184Z,18.78
2024-05-09T19:27:54.956Z,18.73
2024-05-09T19:30:29.925Z,18.70
2024-05-09T19:33:04.653Z,18.63
2024-05-09T19:35:31.405Z,18.58
2024-05-09T19:37:58.231Z,18.54
2024-05-09T19:40:30.732Z,18.49
2024-05-09T19:42:59.717Z,18.44
2024-05-09T19:45:26.345Z,18.37
2024-05-09T19:47:53.112Z,18.24
2024-05-09T19:50:26.880Z,18.15
2024-05-09T19:53:02.339Z,18.09
2024-05-09T19:55:28.897Z,18.08
2024-05-09T19:57:55.499Z,18.04
2024-05-09T20:00:29.153Z,17.98
2024-05-09T20:03:01.862Z,17.92
2024-05-09T20:05:30.728Z,17.88
2024-05-09T20:07:57.669Z,17.87
2024-05-09T20:10:29.830Z,17.82
2024-05-09T20:12:59.430Z,17.73
2024-05-09T20:15:26.049Z,17.70
2024-05-09T20:17:52.700Z,17.65
2024-05-09T20:20:28.373Z,17.64
2024-05-09T20:23:02.892Z,17.58
2024-05-09T20:25:29.585Z,17.54
2024-05-09T20:28:00.422Z,17.46
2024-05-09T20:30:32.105Z,17.38
2024-05-09T20:33:02.860Z,17.34
2024-05-09T20:35:32.300Z,17.31
2024-05-09T20:37:59.341Z,17.28
2024-05-09T20:40:31.970Z,17.20
2024-05-09T20:43:02.234Z,17.06
2024-05-09T20:45:28.848Z,16.99
2024-05-09T20:47:55.868Z,16.99
2024-05-09T20:50:29.266Z,16.96
2024-05-09T20:53:05.047Z,16.94
2024-05-09T20:55:31.853Z,16.93
2024-05-09T20:57:58.692Z,16.90
2024-05-09T21:00:34.290Z,16.89
2024-05-09T21:03:07.026Z,16.86
2024-05-09T21:05:34.954Z,16.85
2024-05-09T21:08:02.133Z,16.82
2024-05-09T21:10:32.783Z,16.78
2024-05-09T21:13:01.147Z,16.72
2024-05-09T21:15:28.058Z,16.65
2024-05-09T21:17:54.672Z,16.58
2024-05-09T21:20:28.259Z,16.54
2024-05-09T21:22:58.128Z,16.52
2024-05-09T21:25:24.826Z,16.49
2024-05-09T21:27:51.659Z,16.47
2024-05-09T21:30:27.737Z,16.42
2024-05-09T21:33:04.584Z,16.37
2024-05-09T21:35:31.264Z,16.33
2024-05-09T21:37:57.817Z,16.27
2024-05-09T21:40:31.533Z,16.21
2024-05-09T21:43:01.501Z,16.15
2024-05-09T21:45:28.199Z,16.10
2024-05-09T21:47:54.951Z,16.05
2024-05-09T21:50:28.183Z,16.02
2024-05-09T21:53:02.058Z,15.98
2024-05-09T21:55:28.600Z,15.93
2024-05-09T21:57:56.462Z,15.88
2024-05-09T22:00:29.209Z,15.83
2024-05-09T22:03:02.468Z,15.78
2024-05-09T22:05:29.329Z,15.75
2024-05-09T22:07:56.485Z,15.67
2024-05-09T22:10:27.098Z,15.62
2024-05-09T22:12:59.744Z,15.59
2024-05-09T22:15:26.315Z,15.56
2024-05-09T22:17:53.602Z,15.52
2024-05-09T22:20:28.715Z,15.47
2024-05-09T22:23:02.200Z,15.42
2024-05-09T22:25:30.705Z,15.39
2024-05-09T22:27:58.003Z,15.35
2024-05-09T22:30:33.156Z,15.33
2024-05-09T22:33:03.736Z,15.32
2024-05-09T22:35:30.452Z,15.31
2024-05-09T22:37:57.029Z,15.30
2024-05-09T22:40:32.263Z,15.26
2024-05-09T22:43:05.907Z,15.23
2024-05-09T22:45:32.671Z,15.16
2024-05-09T22:47:59.638Z,15.13
2024-05-09T22:50:30.528Z,15.09
2024-05-09T22:52:59.199Z,15.05
2024-05-09T22:55:25.947Z,15.00
2024-05-09T22:57:52.604Z,14.97
2024-05-09T23:00:26.302Z,14.94
2024-05-09T23:02:57.808Z,14.87
2024-05-09T23:05:24.462Z,14.85
2024-05-09T23:07:51.012Z,14.82
2024-05-09T23:10:25.009Z,14.79
2024-05-09T23:12:58.524Z,14.73
2024-05-09T23:15:25.112Z,14.67
2024-05-09T23:17:51.827Z,14.63
2024-05-09T23:20:29.619Z,14.61
2024-05-09T23:23:03.207Z,14.59
2024-05-09T23:25:29.724Z,14.55
2024-05-09T23:27:56.284Z,14.51
2024-05-09T23:30:33.051Z,14.44
2024-05-09T23:33:04.615Z,14.39
2024-05-09T23:35:31.275Z,14.36
2024-05-09T23:37:57.827Z,14.35
2024-05-09T23:40:34.668Z,14.33
2024-05-09T23:43:05.345Z,14.30
2024-05-09T23:45:31.927Z,14.27
2024-05-09T23:47:58.664Z,14.23
2024-05-09T23:50:33.574Z,14.23
2024-05-09T23:53:03.165Z,14.17
2024-05-09T23:55:31.107Z,14.16
2024-05-09T23:57:57.683Z,14.16
